Terminal Aerodrome Forecast
Issued by NWS

Home | Current Version | Previous Version | Text Only | Print | Product List | Glossary On
Versions: 1 2 3 4 5 6 7 8 9 10 11 12 13 14
000
FTUS43 KGRR 230500
TAFMKG
TAF
KMKG 230525Z 2306/2406 35010KT P6SM FEW080
     FM230800 36010KT 4SM HZ FEW040
     FM231400 35012G20KT P6SM SCT040
     FM240000 01004KT P6SM SKC=

USA.gov is the U.S. government's official web portal to all federal, state and local government web resources and services.